Time;durP1;ratioP1;P1;durP2;ratioP2;P2;SDS_P1;SDS_P2;PMS_P1;PMS_P2;Temp;Humidity;BMP_temperature;BMP_pressure;BME280_temperature;BME280_humidity;BME280_pressure;Samples;Min_cycle;Max_cycle;Signal;HPM_P1;HPM_P2
2022/07/19 00:01:37;;;;;;;14.90;7.50;;;23.00;93.40;;;;;;4997247;28;20045;-75
2022/07/19 00:04:02;;;;;;;13.82;7.00;;;23.00;94.00;;;;;;4998751;28;20036;-74
2022/07/19 00:06:28;;;;;;;13.70;7.53;;;23.00;94.50;;;;;;5004453;28;20053;-74
2022/07/19 00:08:54;;;;;;;12.65;7.68;;;23.00;95.10;;;;;;5009354;28;20443;-74
2022/07/19 00:11:19;;;;;;;11.65;7.13;;;23.00;95.60;;;;;;4996211;28;20081;-75
2022/07/19 00:13:45;;;;;;;12.00;7.50;;;22.90;96.00;;;;;;5001924;28;20395;-74
2022/07/19 00:16:10;;;;;;;12.55;6.88;;;22.90;96.20;;;;;;5002917;28;20026;-75
2022/07/19 00:18:37;;;;;;;12.93;6.63;;;22.90;96.60;;;;;;5008396;28;20105;-74
2022/07/19 00:21:03;;;;;;;15.18;7.20;;;22.80;96.80;;;;;;5009305;28;20034;-74
2022/07/19 00:23:28;;;;;;;13.68;6.97;;;22.70;97.10;;;;;;4999091;28;20084;-74
2022/07/19 00:25:54;;;;;;;11.90;6.88;;;22.70;97.50;;;;;;4993417;28;20042;-74
2022/07/19 00:28:20;;;;;;;10.70;7.32;;;22.70;97.70;;;;;;5004709;28;20026;-74
2022/07/19 00:30:46;;;;;;;16.15;7.30;;;22.60;98.10;;;;;;5001805;28;20105;-74
2022/07/19 00:33:12;;;;;;;13.88;7.32;;;22.60;98.40;;;;;;4999169;28;20057;-74
2022/07/19 00:35:38;;;;;;;12.38;7.03;;;22.60;98.70;;;;;;5010415;28;20468;-74
2022/07/19 00:38:06;;;;;;;11.05;7.15;;;22.50;99.00;;;;;;5003524;28;20098;-74
2022/07/19 00:40:31;;;;;;;14.65;7.18;;;22.50;99.20;;;;;;5007636;28;20026;-74
2022/07/19 00:42:57;;;;;;;13.90;7.25;;;22.50;99.50;;;;;;4997903;28;20499;-74
2022/07/19 00:45:23;;;;;;;12.40;7.80;;;22.40;99.60;;;;;;4990991;28;20397;-74
2022/07/19 00:47:49;;;;;;;13.32;7.43;;;22.40;99.80;;;;;;5001172;28;20030;-74
2022/07/19 00:50:15;;;;;;;10.00;6.57;;;22.40;99.90;;;;;;5008639;28;20029;-74
2022/07/19 00:52:42;;;;;;;10.25;6.90;;;22.30;99.90;;;;;;4995378;28;20049;-73
2022/07/19 00:55:09;;;;;;;12.73;7.07;;;22.30;99.90;;;;;;5012208;28;20039;-74
2022/07/19 00:57:37;;;;;;;15.82;7.63;;;22.30;99.90;;;;;;5005606;28;20516;-75
2022/07/19 01:00:04;;;;;;;13.10;8.30;;;22.30;99.90;;;;;;5000835;28;20088;-74
2022/07/19 01:02:32;;;;;;;13.98;8.20;;;22.20;99.90;;;;;;5011085;28;20033;-75
2022/07/19 01:04:59;;;;;;;16.73;9.23;;;22.20;99.90;;;;;;4995318;28;20037;-74
2022/07/19 01:07:24;;;;;;;15.20;8.70;;;22.20;99.90;;;;;;5008122;28;20026;-74
2022/07/19 01:09:51;;;;;;;13.43;8.20;;;22.10;99.90;;;;;;5001006;28;20449;-74
2022/07/19 01:12:17;;;;;;;17.17;8.70;;;22.10;99.90;;;;;;5013085;28;20025;-74
2022/07/19 01:14:42;;;;;;;13.18;8.30;;;22.10;99.90;;;;;;5011593;28;20071;-75
2022/07/19 01:17:08;;;;;;;13.07;8.05;;;22.10;99.90;;;;;;5005205;28;20026;-74
2022/07/19 01:19:34;;;;;;;14.93;7.93;;;22.10;99.90;;;;;;5003063;28;20026;-75
2022/07/19 01:21:59;;;;;;;12.57;8.15;;;22.00;99.90;;;;;;5009585;28;20033;-74
2022/07/19 01:24:25;;;;;;;14.77;8.25;;;22.00;99.90;;;;;;5011201;28;20022;-74
2022/07/19 01:26:51;;;;;;;20.38;9.85;;;22.00;99.90;;;;;;5008677;28;20129;-74
2022/07/19 01:29:17;;;;;;;14.40;8.55;;;21.90;99.90;;;;;;5002076;28;20022;-74
2022/07/19 01:31:42;;;;;;;14.88;8.52;;;21.90;99.90;;;;;;5006788;28;20644;-74
2022/07/19 01:34:08;;;;;;;14.75;9.00;;;21.80;99.90;;;;;;5001120;28;20376;-75
2022/07/19 01:36:34;;;;;;;14.90;8.50;;;21.80;99.90;;;;;;5012035;28;20018;-74
2022/07/19 01:39:00;;;;;;;14.30;8.95;;;21.80;99.90;;;;;;5000502;28;20023;-74
2022/07/19 01:41:25;;;;;;;12.77;8.65;;;21.70;99.90;;;;;;5002993;28;20036;-74
2022/07/19 01:43:51;;;;;;;14.68;9.30;;;21.70;99.90;;;;;;5028579;28;20021;-74
2022/07/19 01:46:17;;;;;;;16.98;9.73;;;21.70;99.90;;;;;;5012595;28;20057;-74
2022/07/19 01:48:42;;;;;;;15.48;10.27;;;21.70;99.90;;;;;;5005918;28;20033;-74
2022/07/19 01:51:08;;;;;;;13.13;9.05;;;21.60;99.90;;;;;;5013049;28;20033;-74
2022/07/19 01:53:34;;;;;;;16.10;9.68;;;21.60;99.90;;;;;;5001545;28;20052;-73
2022/07/19 01:56:01;;;;;;;17.98;10.43;;;21.60;99.90;;;;;;5011977;28;20106;-74
2022/07/19 01:58:27;;;;;;;15.45;9.77;;;21.60;99.90;;;;;;5007765;28;20033;-73
2022/07/19 02:00:52;;;;;;;14.18;9.65;;;21.60;99.90;;;;;;5010260;28;20030;-74
2022/07/19 02:03:18;;;;;;;17.17;10.27;;;21.50;99.90;;;;;;5004657;28;20141;-74
2022/07/19 02:05:44;;;;;;;15.77;10.00;;;21.50;99.90;;;;;;5011181;28;20036;-74
2022/07/19 02:08:09;;;;;;;17.15;10.73;;;21.50;99.90;;;;;;5001463;28;20022;-74
2022/07/19 02:10:35;;;;;;;16.67;10.50;;;21.40;99.90;;;;;;4994171;28;20533;-74
2022/07/19 02:13:01;;;;;;;15.38;11.38;;;21.40;99.90;;;;;;5003063;28;20065;-74
2022/07/19 02:15:26;;;;;;;16.80;10.70;;;21.40;99.90;;;;;;5012442;28;20036;-74
2022/07/19 02:17:52;;;;;;;17.10;10.55;;;21.40;99.90;;;;;;5006012;28;20026;-74
2022/07/19 02:20:18;;;;;;;18.35;11.00;;;21.30;99.90;;;;;;5006210;28;20037;-75
2022/07/19 02:22:44;;;;;;;20.88;11.25;;;21.30;99.90;;;;;;5001809;28;20112;-74
2022/07/19 02:25:09;;;;;;;17.13;11.13;;;21.30;99.90;;;;;;5012619;28;20014;-73
2022/07/19 02:27:35;;;;;;;15.48;11.07;;;21.30;99.90;;;;;;5005361;28;20034;-75
2022/07/19 02:30:01;;;;;;;15.60;11.25;;;21.20;99.90;;;;;;5006752;28;20050;-74
2022/07/19 02:32:27;;;;;;;17.65;10.90;;;21.20;99.90;;;;;;5010536;28;20023;-74
2022/07/19 02:34:52;;;;;;;18.83;10.43;;;21.20;99.90;;;;;;5008743;28;20026;-74
2022/07/19 02:37:18;;;;;;;17.05;11.02;;;21.20;99.90;;;;;;5009913;28;20022;-75
2022/07/19 02:39:44;;;;;;;17.35;11.70;;;21.10;99.90;;;;;;5009443;28;20041;-74
2022/07/19 02:42:09;;;;;;;16.00;11.15;;;21.10;99.90;;;;;;5011586;28;20382;-74
2022/07/19 02:44:35;;;;;;;18.27;11.30;;;21.10;99.90;;;;;;5011890;28;20512;-74
2022/07/19 02:47:00;;;;;;;17.15;11.45;;;21.10;99.90;;;;;;5010166;28;20030;-74
2022/07/19 02:49:26;;;;;;;17.13;11.68;;;21.00;99.90;;;;;;5001384;28;20045;-74
2022/07/19 02:51:51;;;;;;;20.88;12.25;;;21.00;99.90;;;;;;5005975;28;20029;-74
2022/07/19 02:54:17;;;;;;;20.42;12.00;;;21.00;99.90;;;;;;4994341;28;20368;-74
2022/07/19 02:56:42;;;;;;;16.73;11.95;;;21.00;99.90;;;;;;5002944;28;20399;-73
2022/07/19 02:59:08;;;;;;;17.55;12.18;;;21.00;99.90;;;;;;5009773;28;20515;-75
2022/07/19 03:01:34;;;;;;;18.27;12.85;;;20.90;99.90;;;;;;5008741;28;20033;-74
2022/07/19 03:03:59;;;;;;;17.75;11.30;;;20.90;99.90;;;;;;5011920;28;20022;-74
2022/07/19 03:06:25;;;;;;;20.27;11.95;;;20.90;99.90;;;;;;5010895;28;20088;-74
2022/07/19 03:08:51;;;;;;;19.80;12.90;;;20.90;99.90;;;;;;5000418;28;20018;-74
2022/07/19 03:11:17;;;;;;;19.67;12.40;;;20.90;99.90;;;;;;5008301;28;20609;-74
2022/07/19 03:13:42;;;;;;;19.05;12.52;;;20.80;99.90;;;;;;5003304;28;20036;-74
2022/07/19 03:16:08;;;;;;;20.17;12.40;;;20.80;99.90;;;;;;5011877;28;20029;-74
2022/07/19 03:18:34;;;;;;;18.45;11.70;;;20.80;99.90;;;;;;5011030;28;20077;-75
2022/07/19 03:21:00;;;;;;;18.20;12.00;;;20.80;99.90;;;;;;5008332;28;20072;-74
2022/07/19 03:23:28;;;;;;;20.23;11.70;;;20.70;99.90;;;;;;5011927;28;20097;-74
2022/07/19 03:25:53;;;;;;;17.85;12.02;;;20.70;99.90;;;;;;5006139;28;20109;-75
2022/07/19 03:28:19;;;;;;;23.90;12.23;;;20.70;99.90;;;;;;5011235;28;20026;-74
2022/07/19 03:30:44;;;;;;;21.50;13.10;;;20.60;99.90;;;;;;5005255;28;20088;-74
2022/07/19 03:33:10;;;;;;;17.27;12.60;;;20.60;99.90;;;;;;5005270;28;20072;-74
2022/07/19 03:35:36;;;;;;;20.75;13.60;;;20.60;99.90;;;;;;5007537;28;20026;-75
2022/07/19 03:38:02;;;;;;;20.25;13.15;;;20.60;99.90;;;;;;5008286;28;20076;-74
2022/07/19 03:40:27;;;;;;;22.23;12.88;;;20.50;99.90;;;;;;4997456;28;20532;-74
2022/07/19 03:42:53;;;;;;;19.02;12.88;;;20.50;99.90;;;;;;5003328;28;20030;-74
2022/07/19 03:45:18;;;;;;;22.25;13.18;;;20.50;99.90;;;;;;5009471;28;20029;-76
2022/07/19 03:47:44;;;;;;;19.75;12.73;;;20.50;99.90;;;;;;4999210;28;20022;-74
2022/07/19 03:50:09;;;;;;;19.45;12.80;;;20.50;99.90;;;;;;5003336;28;20482;-74
2022/07/19 03:52:35;;;;;;;20.10;13.10;;;20.50;99.90;;;;;;5000151;28;20479;-75
2022/07/19 03:55:01;;;;;;;22.90;12.88;;;20.40;99.90;;;;;;5011154;28;20101;-74
2022/07/19 03:57:26;;;;;;;18.42;13.15;;;20.40;99.90;;;;;;5002825;28;20018;-75
2022/07/19 03:59:52;;;;;;;24.08;13.85;;;20.40;99.90;;;;;;5011226;28;20022;-75
2022/07/19 04:02:17;;;;;;;21.55;14.32;;;20.40;99.90;;;;;;4995675;28;20030;-74
2022/07/19 04:04:43;;;;;;;21.23;14.13;;;20.40;99.90;;;;;;4998206;28;20138;-74
2022/07/19 04:07:09;;;;;;;22.67;14.68;;;20.40;99.90;;;;;;5009171;28;20041;-74
2022/07/19 04:09:34;;;;;;;23.10;14.38;;;20.40;99.90;;;;;;4997753;28;20054;-75
2022/07/19 04:12:00;;;;;;;26.70;15.65;;;20.40;99.90;;;;;;5005192;28;20104;-74
2022/07/19 04:14:25;;;;;;;29.48;14.32;;;20.30;99.90;;;;;;5000891;28;20064;-73
2022/07/19 04:16:51;;;;;;;27.23;14.30;;;20.40;99.90;;;;;;5005988;28;20659;-75
2022/07/19 04:19:17;;;;;;;22.10;14.63;;;20.30;99.90;;;;;;4995448;28;20022;-75
2022/07/19 04:21:42;;;;;;;24.42;14.98;;;20.30;99.90;;;;;;5000791;28;20034;-75
2022/07/19 04:24:08;;;;;;;24.88;14.35;;;20.30;99.90;;;;;;5010958;28;20069;-74
2022/07/19 04:26:33;;;;;;;26.58;14.98;;;20.30;99.90;;;;;;5010750;28;20049;-75
2022/07/19 04:28:59;;;;;;;23.63;14.45;;;20.30;99.90;;;;;;5011317;28;20104;-75
2022/07/19 04:31:24;;;;;;;26.80;15.25;;;20.30;99.90;;;;;;5010855;28;20022;-75
2022/07/19 04:33:50;;;;;;;21.27;14.40;;;20.30;99.90;;;;;;5009737;28;20030;-76
2022/07/19 04:36:15;;;;;;;21.95;13.77;;;20.30;99.90;;;;;;4996488;28;20035;-75
2022/07/19 04:38:41;;;;;;;22.75;14.20;;;20.40;99.90;;;;;;5012942;28;20045;-76
2022/07/19 04:41:06;;;;;;;22.67;14.93;;;20.40;99.90;;;;;;5003541;28;20061;-76
2022/07/19 04:43:32;;;;;;;20.80;14.25;;;20.40;99.90;;;;;;5014897;28;20045;-75
2022/07/19 04:45:59;;;;;;;21.25;13.57;;;20.40;99.90;;;;;;5009632;28;20022;-76
2022/07/19 04:48:26;;;;;;;22.88;14.43;;;20.40;99.90;;;;;;5007579;28;20058;-75
2022/07/19 04:50:51;;;;;;;23.80;14.73;;;20.40;99.90;;;;;;5013926;28;20014;-75
2022/07/19 04:53:17;;;;;;;21.75;14.82;;;20.40;99.90;;;;;;5015074;28;20088;-76
2022/07/19 04:55:42;;;;;;;21.35;14.48;;;20.50;99.90;;;;;;5014673;28;20013;-75
2022/07/19 04:58:08;;;;;;;21.90;14.88;;;20.50;99.90;;;;;;5014476;28;20021;-76
2022/07/19 05:00:33;;;;;;;22.77;13.80;;;20.50;99.90;;;;;;5014478;28;20026;-75
2022/07/19 05:02:59;;;;;;;19.92;14.30;;;20.50;99.90;;;;;;5014503;28;20473;-76
2022/07/19 05:05:25;;;;;;;26.00;14.55;;;20.60;99.90;;;;;;5013542;28;20483;-74
2022/07/19 05:07:51;;;;;;;26.38;15.90;;;20.60;99.90;;;;;;5014382;28;20018;-76
2022/07/19 05:10:16;;;;;;;22.48;14.95;;;20.60;99.90;;;;;;5014488;28;20137;-74
2022/07/19 05:12:43;;;;;;;25.05;15.30;;;20.70;99.90;;;;;;5000693;28;20100;-75
2022/07/19 05:15:10;;;;;;;24.92;14.50;;;20.70;99.90;;;;;;5014567;28;20030;-76
2022/07/19 05:17:36;;;;;;;24.40;15.75;;;20.70;99.90;;;;;;5000650;28;20029;-75
2022/07/19 05:20:02;;;;;;;21.73;14.20;;;20.80;99.90;;;;;;5012780;28;20048;-76
2022/07/19 05:22:28;;;;;;;25.67;14.73;;;20.80;99.90;;;;;;5014193;28;20026;-75
2022/07/19 05:24:55;;;;;;;23.38;14.95;;;20.80;99.90;;;;;;5014383;28;20157;-75
2022/07/19 05:27:21;;;;;;;21.77;15.60;;;20.90;99.90;;;;;;5014143;28;20057;-76
2022/07/19 05:29:47;;;;;;;22.70;16.02;;;20.90;99.90;;;;;;5013895;28;20022;-75
2022/07/19 05:32:12;;;;;;;22.85;16.17;;;21.00;99.90;;;;;;5014149;28;20472;-75
2022/07/19 05:34:38;;;;;;;23.50;14.93;;;21.00;99.90;;;;;;5003905;28;20031;-75
2022/07/19 05:37:04;;;;;;;26.27;16.15;;;21.00;99.90;;;;;;5001559;28;20065;-75
2022/07/19 05:39:30;;;;;;;27.17;15.48;;;21.10;99.90;;;;;;5013905;28;20402;-75
2022/07/19 05:41:55;;;;;;;24.08;16.45;;;21.10;99.90;;;;;;5013961;28;20061;-76
2022/07/19 05:44:21;;;;;;;24.90;16.50;;;21.20;99.90;;;;;;5007038;28;20467;-77
2022/07/19 05:46:47;;;;;;;23.23;15.95;;;21.30;99.90;;;;;;5005551;28;20481;-75
2022/07/19 05:49:13;;;;;;;23.17;16.13;;;21.40;99.90;;;;;;5008231;28;20026;-75
2022/07/19 05:51:39;;;;;;;23.13;14.93;;;21.40;99.90;;;;;;5002501;28;20455;-75
2022/07/19 05:54:05;;;;;;;25.77;16.08;;;21.50;99.90;;;;;;4997095;28;20080;-76
2022/07/19 05:56:31;;;;;;;26.25;15.63;;;21.60;99.90;;;;;;5012959;28;20080;-75
2022/07/19 05:58:57;;;;;;;30.95;16.63;;;21.70;99.90;;;;;;4995106;28;20113;-75
2022/07/19 06:01:23;;;;;;;22.67;15.57;;;21.80;99.90;;;;;;5013895;28;20446;-75
2022/07/19 06:03:55;;;;;;;26.25;15.73;;;21.80;99.90;;;;;;5013528;28;20033;-75
2022/07/19 06:06:21;;;;;;;27.52;14.02;;;21.90;99.90;;;;;;5013541;28;20029;-75
2022/07/19 06:08:47;;;;;;;25.60;15.15;;;22.00;99.90;;;;;;5013442;28;20025;-76
2022/07/19 06:11:14;;;;;;;22.67;14.18;;;22.10;99.90;;;;;;5013178;28;20032;-75
2022/07/19 06:13:40;;;;;;;22.42;13.27;;;22.10;99.90;;;;;;5013683;28;20038;-75
2022/07/19 06:16:06;;;;;;;22.98;13.30;;;22.30;99.90;;;;;;4998174;28;20029;-76
2022/07/19 06:18:35;;;;;;;19.52;13.55;;;22.30;99.90;;;;;;5001966;28;20344;-75
2022/07/19 06:21:06;;;;;;;20.13;12.82;;;22.40;99.90;;;;;;5012835;28;20062;-76
2022/07/19 06:23:32;;;;;;;21.02;12.98;;;22.60;99.90;;;;;;5013269;28;20064;-75
2022/07/19 06:25:58;;;;;;;22.98;12.05;;;22.60;99.90;;;;;;5013039;28;20073;-75
2022/07/19 06:28:24;;;;;;;22.10;12.20;;;22.70;99.90;;;;;;5013095;28;20025;-75
2022/07/19 06:30:50;;;;;;;22.60;12.43;;;22.80;99.90;;;;;;5013298;28;20041;-75
2022/07/19 06:33:15;;;;;;;27.25;13.25;;;22.80;99.90;;;;;;4999404;28;20504;-75
2022/07/19 06:35:41;;;;;;;21.33;12.35;;;22.90;99.90;;;;;;5012728;28;20030;-75
2022/07/19 06:38:08;;;;;;;25.23;12.13;;;23.00;99.90;;;;;;5011479;28;20406;-75
2022/07/19 06:40:33;;;;;;;24.95;11.95;;;23.10;99.90;;;;;;4992920;28;20030;-76
2022/07/19 06:42:59;;;;;;;23.88;11.88;;;23.20;99.90;;;;;;4993156;28;20386;-75
2022/07/19 06:45:24;;;;;;;21.00;11.00;;;23.30;99.90;;;;;;5007683;28;20045;-76
2022/07/19 06:47:51;;;;;;;22.33;10.25;;;23.40;99.90;;;;;;5001262;28;20037;-76
2022/07/19 06:50:20;;;;;;;18.92;11.65;;;23.50;99.90;;;;;;5012649;28;20034;-76
2022/07/19 06:52:46;;;;;;;19.38;10.55;;;23.70;99.90;;;;;;5012894;28;20018;-76
2022/07/19 06:55:12;;;;;;;22.50;10.88;;;23.80;99.40;;;;;;5012398;28;20030;-76
2022/07/19 06:57:38;;;;;;;18.38;10.00;;;24.00;98.80;;;;;;5012409;28;20040;-75
2022/07/19 07:00:07;;;;;;;20.83;10.27;;;24.10;98.10;;;;;;5011735;28;20108;-75
2022/07/19 07:02:32;;;;;;;19.60;10.50;;;24.30;97.40;;;;;;5012219;28;20497;-75
2022/07/19 07:04:58;;;;;;;17.98;9.05;;;24.50;96.50;;;;;;5004024;28;20027;-75
2022/07/19 07:07:23;;;;;;;15.60;8.50;;;24.60;95.90;;;;;;5007159;28;20018;-77
2022/07/19 07:09:49;;;;;;;19.20;8.23;;;24.80;95.40;;;;;;5012180;28;20026;-75
2022/07/19 07:12:14;;;;;;;14.70;7.45;;;25.00;94.80;;;;;;5012092;28;20033;-75
2022/07/19 07:14:40;;;;;;;15.35;8.25;;;25.10;94.20;;;;;;5012075;28;20084;-76
2022/07/19 07:17:06;;;;;;;13.43;8.07;;;25.30;93.90;;;;;;5010295;28;20111;-75
2022/07/19 07:19:31;;;;;;;31.58;9.45;;;25.50;93.50;;;;;;5011940;28;20030;-75
2022/07/19 07:21:59;;;;;;;18.70;8.90;;;25.70;93.20;;;;;;5004038;28;20030;-75
2022/07/19 07:24:25;;;;;;;19.75;8.25;;;25.90;92.70;;;;;;5007030;28;20366;-75
2022/07/19 07:26:51;;;;;;;16.25;7.70;;;26.00;92.00;;;;;;5012150;28;20041;-75
2022/07/19 07:29:17;;;;;;;15.55;8.90;;;26.20;91.50;;;;;;5012063;28;20105;-75
2022/07/19 07:31:42;;;;;;;14.38;8.23;;;26.40;90.50;;;;;;5009878;28;20545;-75
2022/07/19 07:34:08;;;;;;;14.80;8.48;;;26.60;89.50;;;;;;5011714;28;20018;-76
2022/07/19 07:36:34;;;;;;;20.40;7.60;;;26.80;88.10;;;;;;5011710;28;20030;-75
2022/07/19 07:38:59;;;;;;;14.20;8.57;;;27.00;87.10;;;;;;5007037;28;20041;-76
2022/07/19 07:41:25;;;;;;;17.83;8.48;;;27.20;86.40;;;;;;4992017;28;20401;-76
2022/07/19 07:43:51;;;;;;;19.85;8.07;;;27.40;83.40;;;;;;5005884;28;20098;-75
2022/07/19 07:46:16;;;;;;;21.33;8.63;;;27.60;81.40;;;;;;5007865;28;20474;-75
2022/07/19 07:48:42;;;;;;;16.70;8.10;;;27.80;78.90;;;;;;4997736;28;20101;-76
2022/07/19 07:51:08;;;;;;;15.52;7.85;;;27.90;76.90;;;;;;5009924;28;20026;-76
2022/07/19 07:53:33;;;;;;;17.77;7.60;;;28.10;75.90;;;;;;5010120;28;20018;-74
2022/07/19 07:55:59;;;;;;;14.45;7.75;;;28.30;75.90;;;;;;5010998;28;20470;-73
2022/07/19 07:58:24;;;;;;;17.35;7.38;;;28.50;74.80;;;;;;5011258;28;20365;-73
2022/07/19 08:00:50;;;;;;;18.38;9.27;;;28.70;73.80;;;;;;5000326;28;20030;-73
2022/07/19 08:03:17;;;;;;;13.90;9.40;;;28.90;73.00;;;;;;5011126;28;20034;-72
2022/07/19 08:05:47;;;;;;;16.88;8.95;;;29.00;71.20;;;;;;5011307;28;20484;-73
2022/07/19 08:08:16;;;;;;;17.10;10.38;;;29.20;70.80;;;;;;5011322;28;20022;-74
2022/07/19 08:10:41;;;;;;;22.77;9.48;;;29.40;69.60;;;;;;5010934;28;20045;-73
2022/07/19 08:13:07;;;;;;;16.88;8.43;;;29.50;68.80;;;;;;5010513;28;20014;-74
2022/07/19 08:15:33;;;;;;;16.02;7.65;;;29.70;68.70;;;;;;4998441;28;20101;-73
2022/07/19 08:17:59;;;;;;;14.55;8.20;;;29.80;68.40;;;;;;5008818;28;20164;-73
2022/07/19 08:20:25;;;;;;;16.15;8.43;;;30.00;67.80;;;;;;5010929;28;20113;-74
2022/07/19 08:22:50;;;;;;;16.38;8.50;;;30.20;67.00;;;;;;5010692;28;20034;-73
2022/07/19 08:25:16;;;;;;;11.60;6.28;;;30.40;65.80;;;;;;5010513;28;20545;-74
2022/07/19 08:27:43;;;;;;;17.10;7.63;;;30.60;65.20;;;;;;5010992;28;20088;-73
2022/07/19 08:30:09;;;;;;;14.60;7.40;;;30.70;63.40;;;;;;5009015;28;20381;-74
2022/07/19 08:32:35;;;;;;;17.50;6.60;;;30.80;61.20;;;;;;5010845;28;20432;-74
2022/07/19 08:35:01;;;;;;;12.75;6.40;;;30.90;60.40;;;;;;5010699;28;20045;-74
2022/07/19 08:37:27;;;;;;;13.20;5.45;;;31.10;59.50;;;;;;5010920;28;20390;-74
2022/07/19 08:39:53;;;;;;;13.27;5.75;;;31.20;59.10;;;;;;4998995;28;20018;-73
2022/07/19 08:42:20;;;;;;;11.75;5.20;;;31.30;58.20;;;;;;5008804;28;20029;-74
2022/07/19 08:44:50;;;;;;;8.60;4.30;;;31.40;57.10;;;;;;5008897;28;20381;-74
2022/07/19 08:47:18;;;;;;;10.45;4.40;;;31.60;56.50;;;;;;5010757;28;20574;-73
2022/07/19 08:49:44;;;;;;;10.35;4.38;;;31.70;56.00;;;;;;5010567;28;20109;-74
2022/07/19 08:52:11;;;;;;;9.00;4.28;;;31.80;55.30;;;;;;5010612;28;20050;-73
2022/07/19 08:54:37;;;;;;;9.48;4.20;;;31.90;54.40;;;;;;5010573;28;20061;-73
2022/07/19 08:59:47;;;;;;;10.13;3.30;;;32.20;52.80;;;;;;5005730;28;20551;-73
2022/07/19 09:02:13;;;;;;;8.85;3.20;;;32.30;51.90;;;;;;5010228;28;20033;-74
2022/07/19 09:04:39;;;;;;;8.30;3.08;;;32.40;50.40;;;;;;5010548;28;20026;-74
2022/07/19 09:07:04;;;;;;;9.48;3.30;;;32.50;50.20;;;;;;5010389;28;20025;-73
2022/07/19 09:09:32;;;;;;;9.80;3.33;;;32.50;49.60;;;;;;5010550;28;20126;-73
2022/07/19 09:11:59;;;;;;;6.50;3.13;;;32.70;49.40;;;;;;5010245;28;20037;-74
2022/07/19 09:14:36;;;;;;;9.98;3.17;;;32.80;48.80;;;;;;5006105;28;20312;-73
2022/07/19 09:17:06;;;;;;;11.10;3.40;;;32.90;48.10;;;;;;5000892;28;20034;-72
2022/07/19 09:19:33;;;;;;;9.88;3.28;;;33.00;47.90;;;;;;5007911;28;20116;-73
2022/07/19 09:22:06;;;;;;;12.02;3.28;;;33.10;47.80;;;;;;4990604;28;20113;-73
2022/07/19 09:24:35;;;;;;;7.60;3.05;;;33.30;47.50;;;;;;4996049;28;20419;-73
2022/07/19 09:27:08;;;;;;;10.43;3.22;;;33.40;47.10;;;;;;5014311;28;20042;-73
2022/07/19 09:29:36;;;;;;;5.90;2.90;;;33.50;46.90;;;;;;4999687;28;20065;-73
2022/07/19 09:32:07;;;;;;;8.70;3.00;;;33.80;46.50;;;;;;5013968;28;20021;-74
2022/07/19 09:34:34;;;;;;;7.03;2.90;;;33.90;45.50;;;;;;5013714;28;20029;-73
2022/07/19 09:37:20;;;;;;;8.18;3.28;;;34.00;44.70;;;;;;5013857;28;20014;-74
2022/07/19 09:39:53;;;;;;;5.47;2.78;;;34.10;43.10;;;;;;5002374;28;20519;-73
2022/07/19 09:42:40;;;;;;;6.20;2.80;;;34.20;43.80;;;;;;5011467;28;20030;-73
2022/07/19 09:45:08;;;;;;;11.68;2.90;;;34.40;42.80;;;;;;5003126;28;20080;-74
2022/07/19 09:47:39;;;;;;;9.70;3.03;;;34.60;43.10;;;;;;5013480;28;20088;-73
2022/07/19 09:50:16;;;;;;;7.85;3.20;;;34.80;42.50;;;;;;5013439;28;20037;-73
2022/07/19 09:52:44;;;;;;;8.07;3.20;;;34.80;42.70;;;;;;5013648;28;20060;-73
2022/07/19 09:55:10;;;;;;;8.10;3.30;;;35.00;42.90;;;;;;5013368;28;20033;-73
2022/07/19 09:57:40;;;;;;;11.63;2.90;;;35.20;42.70;;;;;;5008410;28;20065;-73
2022/07/19 10:00:08;;;;;;;7.30;2.95;;;35.30;42.80;;;;;;5003932;28;20042;-73
2022/07/19 10:02:36;;;;;;;6.88;3.08;;;35.50;42.10;;;;;;5013185;28;20546;-74
2022/07/19 10:05:04;;;;;;;7.82;2.78;;;35.50;41.80;;;;;;5013258;28;20491;-73
2022/07/19 10:07:31;;;;;;;6.10;2.47;;;35.60;41.60;;;;;;5013179;28;20382;-73
2022/07/19 10:10:01;;;;;;;9.98;3.20;;;35.60;40.70;;;;;;5013216;28;20029;-74
2022/07/19 10:12:28;;;;;;;7.18;2.63;;;35.70;41.10;;;;;;5011487;28;20524;-73
2022/07/19 10:14:57;;;;;;;12.10;3.03;;;35.90;41.20;;;;;;5013265;28;20472;-72
2022/07/19 10:17:35;;;;;;;10.70;2.75;;;36.00;40.80;;;;;;5000269;28;20038;-72
2022/07/19 10:20:03;;;;;;;7.18;3.00;;;36.20;39.90;;;;;;5012790;28;20117;-74
2022/07/19 10:22:29;;;;;;;5.53;2.67;;;36.30;40.00;;;;;;5006502;28;20101;-73
2022/07/19 10:24:58;;;;;;;9.80;3.00;;;36.50;40.20;;;;;;5001517;28;20045;-73
2022/07/19 10:27:23;;;;;;;4.15;2.60;;;36.50;40.00;;;;;;5009056;28;20045;-73
2022/07/19 10:29:52;;;;;;;8.68;2.80;;;36.60;39.70;;;;;;4999065;28;20045;-73
2022/07/19 10:32:26;;;;;;;8.32;2.72;;;36.60;39.40;;;;;;5008452;28;20033;-73
2022/07/19 10:35:27;;;;;;;5.90;2.78;;;36.60;39.70;;;;;;5009122;28;20026;-73
2022/07/19 10:38:01;;;;;;;8.57;2.88;;;36.80;39.40;;;;;;5012693;28;20077;-72
2022/07/19 10:40:37;;;;;;;;;;;36.80;39.60;;;;;;4999144;28;20041;-72
2022/07/19 10:43:08;;;;;;;17.02;13.98;;;36.80;39.60;;;;;;5000829;28;19914;-73
2022/07/19 10:45:34;;;;;;;17.02;12.10;;;36.90;39.90;;;;;;5001051;28;20109;-74
2022/07/19 10:48:03;;;;;;;6.85;4.00;;;37.00;39.50;;;;;;4999687;28;20110;-74
2022/07/19 10:50:48;;;;;;;8.25;3.20;;;37.00;39.40;;;;;;5001626;28;20028;-73
2022/07/19 10:53:41;;;;;;;28.35;23.80;;;37.10;39.30;;;;;;5005032;28;20030;-72
2022/07/19 10:56:34;;;;;;;9.43;6.57;;;37.20;39.20;;;;;;4997543;28;20027;-72
2022/07/19 10:59:08;;;;;;;12.65;3.33;;;37.30;38.00;;;;;;5000802;28;20471;-73
2022/07/19 11:01:35;;;;;;;8.65;3.10;;;37.40;38.70;;;;;;5004740;28;20026;-73
2022/07/19 11:04:23;;;;;;;6.43;2.83;;;37.40;38.80;;;;;;5010631;28;20038;-73
2022/07/19 11:06:49;;;;;;;5.85;4.28;;;37.50;38.20;;;;;;5004961;28;20097;-73
2022/07/19 11:09:15;;;;;;;6.18;3.28;;;37.40;38.10;;;;;;5006029;28;20057;-73
2022/07/19 11:11:42;;;;;;;10.77;2.83;;;37.50;38.30;;;;;;5004663;28;20042;-72
2022/07/19 11:14:09;;;;;;;16.35;9.20;;;37.60;37.50;;;;;;5006053;28;20026;-73
2022/07/19 11:16:34;;;;;;;185.98;166.82;;;37.60;37.70;;;;;;5009846;28;20068;-73
2022/07/19 11:19:08;;;;;;;14.27;4.80;;;37.60;37.60;;;;;;5012511;28;20026;-73
2022/07/19 11:21:36;;;;;;;7.82;3.10;;;37.80;38.30;;;;;;5010435;28;20018;-75
2022/07/19 11:24:08;;;;;;;10.02;3.30;;;37.80;38.50;;;;;;5005485;28;20097;-77
2022/07/19 11:26:37;;;;;;;22.27;17.95;;;37.90;38.10;;;;;;5017128;28;20049;-73
2022/07/19 11:29:03;;;;;;;75.60;64.38;;;37.90;38.40;;;;;;5008445;28;20100;-73
2022/07/19 11:31:29;;;;;;;107.57;81.47;;;38.00;37.80;;;;;;5006193;28;20458;-72
2022/07/19 11:33:56;;;;;;;10.85;5.30;;;37.90;36.70;;;;;;5005685;28;20061;-73
2022/07/19 11:36:22;;;;;;;77.28;60.33;;;38.00;36.60;;;;;;5008990;28;20058;-73
2022/07/19 11:38:51;;;;;;;129.95;116.38;;;38.00;36.30;;;;;;5005959;28;20025;-73
2022/07/19 11:41:28;;;;;;;12.55;8.25;;;38.10;36.40;;;;;;5010692;28;20035;-75
2022/07/19 11:44:04;;;;;;;12.77;6.60;;;38.10;36.30;;;;;;5013485;28;20078;-73
2022/07/19 11:46:37;;;;;;;10.63;3.63;;;38.10;35.80;;;;;;5007162;28;20085;-73
2022/07/19 11:49:04;;;;;;;8.18;3.30;;;38.10;35.70;;;;;;5011361;28;20030;-73
2022/07/19 11:51:31;;;;;;;10.35;3.35;;;38.20;35.70;;;;;;5008961;28;20022;-73
2022/07/19 11:53:58;;;;;;;5.20;2.45;;;38.30;35.60;;;;;;5008769;28;20029;-73
2022/07/19 11:56:35;;;;;;;5.30;2.95;;;38.30;34.50;;;;;;5004442;28;20056;-73
2022/07/19 11:59:03;;;;;;;7.20;2.97;;;38.30;34.20;;;;;;5002417;28;20084;-74
2022/07/19 12:01:32;;;;;;;8.82;2.97;;;38.30;34.50;;;;;;5001684;28;20061;-74
2022/07/19 12:04:04;;;;;;;16.88;12.73;;;38.40;34.30;;;;;;5007817;28;20113;-74
2022/07/19 12:06:46;;;;;;;31.45;23.50;;;38.50;33.90;;;;;;5007218;28;20022;-73
2022/07/19 12:09:15;;;;;;;30.67;21.63;;;38.50;33.70;;;;;;5005100;28;20044;-73
2022/07/19 12:11:47;;;;;;;32.03;24.48;;;38.50;34.00;;;;;;5002814;28;20057;-73
2022/07/19 12:14:22;;;;;;;40.95;24.48;;;38.60;33.90;;;;;;4995864;28;20105;-74
2022/07/19 12:17:12;;;;;;;18.38;10.52;;;38.70;33.80;;;;;;5000709;28;20061;-73
2022/07/19 12:19:43;;;;;;;8.43;3.55;;;38.80;33.20;;;;;;5003428;28;20026;-73
2022/07/19 12:22:40;;;;;;;10.68;2.70;;;38.80;33.00;;;;;;5010335;28;20557;-73
2022/07/19 12:25:07;;;;;;;8.38;2.63;;;38.90;32.70;;;;;;5006056;28;20089;-73
2022/07/19 12:27:33;;;;;;;8.85;2.70;;;38.90;32.40;;;;;;5004667;28;20034;-73
2022/07/19 12:30:02;;;;;;;9.57;2.83;;;38.90;32.20;;;;;;5005550;28;20057;-73
2022/07/19 12:32:31;;;;;;;8.18;2.40;;;38.90;32.00;;;;;;5010482;28;20026;-73
2022/07/19 12:35:00;;;;;;;11.95;3.00;;;39.00;31.90;;;;;;5013239;28;20025;-73
2022/07/19 12:37:29;;;;;;;7.65;2.67;;;38.90;31.80;;;;;;5000257;28;20027;-73